Aviation Digital Data Service (ADDS)

Output produced by METARs form (0223 UTC 23 September 2018)
found at http://aviationweather.gov/metar/data/
 
KCXO 230216Z 2302/2324 12002KT P6SM BKN006 BKN040 
     FM230400 03002KT 6SM BR VCSH SCT004 BKN015 
     FM231000 00000KT 6SM BR SCT003 BKN015 
     FM231700 27005KT P6SM SCT015 BKN035